createdAt,value
2022-08-22T00:00:42.778Z,17.25
2022-08-22T00:02:56.264Z,19.92
2022-08-22T00:03:03.866Z,21.34
2022-08-22T00:03:12.821Z,23.78
2022-08-22T00:03:15.129Z,18.97
2022-08-22T00:03:17.667Z,18.24
2022-08-22T00:05:32.641Z,18.27
2022-08-22T00:07:47.324Z,18.28
2022-08-22T00:10:01.141Z,17.29
2022-08-22T00:12:14.646Z,18.29
2022-08-22T00:14:23.476Z,16.84
2022-08-22T00:16:33.125Z,18.08
2022-08-22T00:18:41.243Z,18.11
2022-08-22T00:20:50.236Z,18.13
2022-08-22T00:22:59.946Z,18.20
2022-08-22T00:25:34.912Z,18.15
2022-08-22T00:27:49.325Z,18.28
2022-08-22T00:29:57.408Z,18.36
2022-08-22T00:32:10.366Z,18.34
2022-08-22T00:34:18.557Z,18.37
2022-08-22T00:36:26.976Z,18.35
2022-08-22T00:38:33.382Z,18.48
2022-08-22T00:40:53.499Z,18.57
2022-08-22T00:43:20.674Z,16.86
2022-08-22T00:45:55.916Z,18.52
2022-08-22T00:48:18.852Z,18.50
2022-08-22T00:51:01.719Z,18.36
2022-08-22T00:53:18.648Z,18.33
2022-08-22T00:55:36.706Z,18.17
2022-08-22T00:57:55.876Z,16.48
2022-08-22T01:00:16.618Z,17.77
2022-08-22T01:02:32.883Z,17.64
2022-08-22T01:04:49.162Z,17.29
2022-08-22T01:07:04.824Z,16.11
2022-08-22T01:10:14.687Z,17.21
2022-08-22T01:12:42.467Z,17.31
2022-08-22T01:14:50.310Z,17.35
2022-08-22T01:17:22.443Z,17.35
2022-08-22T01:19:55.171Z,16.37
2022-08-22T01:22:28.344Z,17.58
2022-08-22T01:25:32.472Z,17.74
2022-08-22T01:28:29.949Z,17.81
2022-08-22T01:31:26.944Z,14.55
2022-08-22T01:34:16.261Z,17.84
2022-08-22T01:36:47.549Z,17.87
2022-08-22T01:39:04.079Z,17.46
2022-08-22T01:41:46.682Z,17.89
2022-08-22T01:44:08.563Z,17.69
2022-08-22T01:46:34.851Z,17.72
2022-08-22T01:48:45.215Z,17.72
2022-08-22T01:50:55.095Z,17.70
2022-08-22T01:53:04.871Z,17.78
2022-08-22T01:55:12.490Z,15.83
2022-08-22T01:57:16.221Z,17.76
2022-08-22T01:59:27.545Z,17.03
2022-08-22T02:01:53.631Z,15.73
2022-08-22T02:04:04.523Z,17.14
2022-08-22T02:06:14.790Z,16.83
2022-08-22T02:08:27.256Z,17.69
2022-08-22T02:10:46.381Z,13.99
2022-08-22T02:13:02.647Z,17.02
2022-08-22T02:15:16.687Z,17.48
2022-08-22T02:17:25.304Z,16.58
2022-08-22T02:19:37.985Z,16.08
2022-08-22T02:21:47.460Z,16.06
2022-08-22T02:23:56.124Z,16.18
2022-08-22T02:26:10.799Z,16.33
2022-08-22T02:28:19.835Z,16.50
2022-08-22T02:30:29.031Z,16.51
2022-08-22T02:32:38.505Z,13.96
2022-08-22T02:34:45.938Z,14.25
2022-08-22T02:36:58.209Z,16.61
2022-08-22T02:39:08.015Z,16.73
2022-08-22T02:41:23.758Z,16.07
2022-08-22T02:43:36.898Z,15.09
2022-08-22T02:45:47.508Z,16.01
2022-08-22T02:47:57.895Z,15.09
2022-08-22T02:50:13.657Z,16.07
2022-08-22T02:52:22.715Z,16.73
2022-08-22T02:54:31.360Z,16.26
2022-08-22T02:56:40.236Z,16.25
2022-08-22T02:58:50.477Z,16.49
2022-08-22T03:01:22.285Z,16.09
2022-08-22T03:03:28.777Z,16.13
2022-08-22T03:05:48.357Z,16.32
2022-08-22T03:08:01.049Z,16.42
2022-08-22T03:10:14.888Z,16.48
2022-08-22T03:12:26.131Z,16.01
2022-08-22T03:14:36.285Z,16.49
2022-08-22T03:16:46.744Z,16.09
2022-08-22T03:18:57.271Z,14.51
2022-08-22T03:21:15.803Z,16.46
2022-08-22T03:23:29.804Z,15.95
2022-08-22T03:25:38.478Z,15.89
2022-08-22T03:27:49.811Z,15.43
2022-08-22T03:29:57.235Z,15.42
2022-08-22T03:32:10.615Z,15.53
2022-08-22T03:34:22.643Z,15.04
2022-08-22T03:36:29.867Z,15.80
2022-08-22T03:38:58.321Z,15.89
2022-08-22T03:41:35.664Z,15.90
2022-08-22T03:43:53.415Z,15.87
2022-08-22T03:46:37.594Z,15.44
2022-08-22T03:49:13.604Z,15.29
2022-08-22T03:51:41.958Z,15.45
2022-08-22T03:54:17.932Z,15.23
2022-08-22T03:57:00.606Z,15.29
2022-08-22T03:59:19.388Z,14.84
2022-08-22T04:01:47.115Z,14.76
2022-08-22T04:04:31.708Z,14.90
2022-08-22T04:07:04.126Z,14.78
2022-08-22T04:09:52.903Z,14.85
2022-08-22T04:12:23.840Z,15.17
2022-08-22T04:15:14.314Z,15.22
2022-08-22T04:17:33.765Z,15.05
2022-08-22T04:19:54.142Z,15.05
2022-08-22T04:22:15.968Z,15.05
2022-08-22T04:24:39.760Z,14.32
2022-08-22T04:26:52.337Z,14.61
2022-08-22T04:29:03.566Z,15.43
2022-08-22T04:31:11.777Z,15.45
2022-08-22T04:33:19.775Z,15.36
2022-08-22T04:35:32.125Z,15.29
2022-08-22T04:37:41.572Z,15.33
2022-08-22T04:39:53.466Z,14.43
2022-08-22T04:42:29.178Z,15.40
2022-08-22T04:44:32.933Z,16.18
2022-08-22T04:46:42.797Z,16.47
2022-08-22T04:48:51.904Z,16.35
2022-08-22T04:51:00.240Z,16.22
2022-08-22T04:53:29.327Z,15.87
2022-08-22T04:55:44.366Z,16.14
2022-08-22T04:57:57.186Z,16.09
2022-08-22T05:00:06.248Z,15.78
2022-08-22T05:02:12.250Z,15.67
2022-08-22T05:04:22.225Z,14.76
2022-08-22T05:06:28.603Z,15.58
2022-08-22T05:08:35.984Z,15.70
2022-08-22T05:10:46.785Z,15.80
2022-08-22T05:12:56.225Z,15.88
2022-08-22T05:15:02.691Z,15.49
2022-08-22T05:17:09.544Z,15.99
2022-08-22T05:19:18.257Z,15.99
2022-08-22T05:21:29.052Z,16.03
2022-08-22T05:23:38.368Z,14.41
2022-08-22T05:25:43.719Z,16.10
2022-08-22T05:27:56.997Z,16.15
2022-08-22T05:30:04.785Z,16.19
2022-08-22T05:32:13.143Z,16.12
2022-08-22T05:34:21.337Z,16.02
2022-08-22T05:36:26.530Z,16.07
2022-08-22T05:38:32.560Z,16.03
2022-08-22T05:40:37.752Z,16.06
2022-08-22T05:42:41.520Z,16.04
2022-08-22T05:44:44.436Z,16.01
2022-08-22T05:46:53.056Z,15.46
2022-08-22T05:48:58.619Z,16.15
2022-08-22T05:51:14.172Z,13.77
2022-08-22T05:53:26.306Z,16.16
2022-08-22T05:55:32.916Z,16.35
2022-08-22T05:57:39.525Z,16.47
2022-08-22T05:59:46.303Z,16.57
2022-08-22T06:02:00.066Z,16.66
2022-08-22T06:04:09.259Z,16.73
2022-08-22T06:06:17.524Z,16.24
2022-08-22T06:08:25.879Z,16.79
2022-08-22T06:10:34.056Z,16.85
2022-08-22T06:12:39.962Z,17.01
2022-08-22T06:14:54.656Z,17.16
2022-08-22T06:17:07.275Z,17.37
2022-08-22T06:19:19.320Z,17.43
2022-08-22T06:21:38.472Z,17.58
2022-08-22T06:23:47.593Z,17.71
2022-08-22T06:25:52.271Z,17.78
2022-08-22T06:27:56.658Z,16.44
2022-08-22T06:30:03.042Z,17.97
2022-08-22T06:32:13.854Z,18.06
2022-08-22T06:34:22.962Z,18.15
2022-08-22T06:36:33.917Z,18.24
2022-08-22T06:39:00.302Z,17.85
2022-08-22T06:41:07.164Z,18.08
2022-08-22T06:43:12.547Z,18.48
2022-08-22T06:45:20.681Z,18.57
2022-08-22T06:47:29.460Z,18.67
2022-08-22T06:49:37.451Z,18.77
2022-08-22T06:51:40.674Z,18.87
2022-08-22T06:53:48.480Z,18.98
2022-08-22T06:55:54.547Z,19.06
2022-08-22T06:58:00.390Z,17.82
2022-08-22T07:00:08.341Z,19.19
2022-08-22T07:02:22.329Z,19.32
2022-08-22T07:04:29.130Z,19.45
2022-08-22T07:06:41.263Z,19.57
2022-08-22T07:08:45.054Z,19.39
2022-08-22T07:10:56.429Z,19.75
2022-08-22T07:12:59.984Z,19.89
2022-08-22T07:15:12.179Z,19.98
2022-08-22T07:17:19.695Z,20.08
2022-08-22T07:19:29.473Z,20.15
2022-08-22T07:21:44.575Z,20.20
2022-08-22T07:23:48.305Z,20.30
2022-08-22T07:25:54.658Z,20.36
2022-08-22T07:28:17.208Z,20.23
2022-08-22T07:30:27.326Z,20.41
2022-08-22T07:32:42.103Z,20.50
2022-08-22T07:35:05.269Z,20.60
2022-08-22T07:37:15.586Z,20.69
2022-08-22T07:39:26.844Z,20.81
2022-08-22T07:41:40.508Z,20.89
2022-08-22T07:43:47.589Z,20.94
2022-08-22T07:45:54.545Z,20.97
2022-08-22T07:48:06.300Z,20.81
2022-08-22T07:50:15.886Z,21.20
2022-08-22T07:52:19.954Z,21.30
2022-08-22T07:54:27.763Z,20.56
2022-08-22T07:56:34.406Z,21.52
2022-08-22T07:58:40.813Z,21.56
2022-08-22T08:00:45.718Z,21.61
2022-08-22T08:02:52.092Z,21.66
2022-08-22T08:04:57.994Z,21.74
2022-08-22T08:07:06.423Z,21.83
2022-08-22T08:09:15.590Z,21.46
2022-08-22T08:11:20.557Z,21.73
2022-08-22T08:13:31.822Z,22.11
2022-08-22T08:15:38.511Z,22.21
2022-08-22T08:17:41.890Z,22.27
2022-08-22T08:19:47.275Z,22.41
2022-08-22T08:21:53.584Z,22.59
2022-08-22T08:24:00.334Z,22.72
2022-08-22T08:26:08.585Z,22.71
2022-08-22T08:28:28.781Z,23.00
2022-08-22T08:30:37.882Z,23.08
2022-08-22T08:32:42.765Z,23.22
2022-08-22T08:34:45.889Z,22.39
2022-08-22T08:36:53.919Z,23.56
2022-08-22T08:39:12.681Z,23.60
2022-08-22T08:41:32.113Z,23.72
2022-08-22T08:43:48.686Z,23.95
2022-08-22T08:46:24.869Z,24.13
2022-08-22T08:48:50.043Z,23.68
2022-08-22T08:51:10.054Z,24.43
2022-08-22T08:53:46.491Z,24.57
2022-08-22T08:55:59.593Z,24.71
2022-08-22T08:58:17.829Z,24.84
2022-08-22T09:00:29.120Z,24.97
2022-08-22T09:02:52.444Z,25.15
2022-08-22T09:05:27.010Z,25.23
2022-08-22T09:08:01.806Z,25.44
2022-08-22T09:10:21.045Z,24.76
2022-08-22T09:13:11.565Z,25.56
2022-08-22T09:15:56.315Z,25.83
2022-08-22T09:18:45.927Z,25.92
2022-08-22T09:21:04.880Z,25.36
2022-08-22T09:23:34.782Z,26.30
2022-08-22T09:25:43.830Z,26.41
2022-08-22T09:27:54.583Z,24.51
2022-08-22T09:30:07.008Z,25.22
2022-08-22T09:32:19.159Z,26.66
2022-08-22T09:34:28.294Z,27.01
2022-08-22T09:36:38.053Z,27.22
2022-08-22T09:38:52.225Z,27.36
2022-08-22T09:41:05.280Z,27.57
2022-08-22T09:43:11.841Z,27.74
2022-08-22T09:45:50.470Z,27.72
2022-08-22T09:48:07.232Z,27.86
2022-08-22T09:50:17.604Z,28.02
2022-08-22T09:52:48.644Z,28.06
2022-08-22T09:54:57.654Z,28.13
2022-08-22T09:57:14.080Z,27.89
2022-08-22T09:59:24.022Z,28.13
2022-08-22T10:01:32.939Z,28.31
2022-08-22T10:04:09.810Z,28.52
2022-08-22T10:06:19.656Z,28.58
2022-08-22T10:08:37.795Z,28.86
2022-08-22T10:11:08.573Z,29.05
2022-08-22T10:13:24.250Z,29.16
2022-08-22T10:15:36.668Z,29.24
2022-08-22T10:17:50.231Z,29.38
2022-08-22T10:19:58.718Z,29.18
2022-08-22T10:22:30.170Z,29.64
2022-08-22T10:24:43.681Z,29.79
2022-08-22T10:26:51.896Z,29.86
2022-08-22T10:29:04.218Z,30.00
2022-08-22T10:31:22.229Z,30.09
2022-08-22T10:33:29.765Z,29.75
2022-08-22T10:35:36.160Z,30.02
2022-08-22T10:37:46.619Z,30.23
2022-08-22T10:40:00.314Z,30.42
2022-08-22T10:42:23.253Z,30.64
2022-08-22T10:44:37.105Z,30.34
2022-08-22T10:46:44.837Z,30.70
2022-08-22T10:48:53.571Z,30.43
2022-08-22T10:51:04.052Z,30.54
2022-08-22T10:53:35.025Z,30.94
2022-08-22T10:55:42.073Z,31.15
2022-08-22T10:58:00.213Z,31.22
2022-08-22T11:00:14.441Z,30.45
2022-08-22T11:02:37.459Z,30.08
2022-08-22T11:05:03.143Z,31.40
2022-08-22T11:07:21.865Z,30.89
2022-08-22T11:09:36.839Z,30.49
2022-08-22T11:11:44.920Z,30.18
2022-08-22T11:14:03.002Z,30.74
2022-08-22T11:16:18.148Z,30.67
2022-08-22T11:18:32.511Z,29.87
2022-08-22T11:20:49.886Z,28.79
2022-08-22T11:23:12.667Z,29.90
2022-08-22T11:25:35.685Z,29.97
2022-08-22T11:27:47.415Z,30.38
2022-08-22T11:30:02.109Z,30.56
2022-08-22T11:32:16.541Z,30.30
2022-08-22T11:34:32.184Z,31.27
2022-08-22T11:36:40.642Z,31.86
2022-08-22T11:38:54.476Z,31.75
2022-08-22T11:41:03.689Z,31.53
2022-08-22T11:43:22.642Z,31.26
2022-08-22T11:45:30.178Z,31.84
2022-08-22T11:47:41.851Z,31.84
2022-08-22T11:49:53.166Z,31.71
2022-08-22T11:52:18.281Z,32.37
2022-08-22T11:54:30.869Z,32.16
2022-08-22T11:56:45.196Z,32.67
2022-08-22T11:59:00.310Z,32.97
2022-08-22T12:01:17.166Z,33.27
2022-08-22T12:03:41.390Z,33.76
2022-08-22T12:05:47.106Z,33.95
2022-08-22T12:07:56.108Z,34.03
2022-08-22T12:10:04.067Z,33.96
2022-08-22T12:12:35.655Z,33.92
2022-08-22T12:14:43.825Z,34.36
2022-08-22T12:17:05.738Z,34.23
2022-08-22T12:19:22.961Z,33.86
2022-08-22T12:22:02.344Z,34.50
2022-08-22T12:24:43.747Z,34.59
2022-08-22T12:26:57.785Z,34.79
2022-08-22T12:29:17.842Z,34.86
2022-08-22T12:31:34.039Z,34.30
2022-08-22T12:34:01.239Z,33.93
2022-08-22T12:36:23.428Z,33.73
2022-08-22T12:38:38.491Z,33.46
2022-08-22T12:40:54.684Z,32.12
2022-08-22T12:43:10.282Z,33.71
2022-08-22T12:45:41.124Z,33.44
2022-08-22T12:48:02.279Z,33.42
2022-08-22T12:50:20.825Z,32.77
2022-08-22T12:52:41.287Z,33.60
2022-08-22T12:55:22.079Z,34.15
2022-08-22T12:57:41.524Z,34.81
2022-08-22T12:59:49.896Z,34.05
2022-08-22T13:01:57.629Z,34.91
2022-08-22T13:04:05.269Z,34.81
2022-08-22T13:06:48.830Z,35.31
2022-08-22T13:08:54.187Z,35.49
2022-08-22T13:11:02.024Z,35.31
2022-08-22T13:13:12.333Z,35.85
2022-08-22T13:15:31.109Z,35.77
2022-08-22T13:17:36.681Z,36.00
2022-08-22T13:19:53.658Z,36.15
2022-08-22T13:22:00.981Z,34.87
2022-08-22T13:24:10.495Z,35.27
2022-08-22T13:26:32.982Z,35.54
2022-08-22T13:28:45.810Z,36.43
2022-08-22T13:30:54.175Z,35.57
2022-08-22T13:33:08.727Z,35.60
2022-08-22T13:35:23.894Z,34.96
2022-08-22T13:37:32.785Z,33.11
2022-08-22T13:39:38.855Z,33.32
2022-08-22T13:41:51.513Z,33.66
2022-08-22T13:44:13.850Z,32.59
2022-08-22T13:46:25.939Z,33.17
2022-08-22T13:48:47.597Z,33.49
2022-08-22T13:51:07.977Z,32.94
2022-08-22T13:53:26.245Z,31.34
2022-08-22T13:55:35.086Z,31.64
2022-08-22T13:57:41.804Z,31.80
2022-08-22T13:59:52.505Z,32.27
2022-08-22T14:02:04.585Z,32.31
2022-08-22T14:04:30.961Z,31.79
2022-08-22T14:06:47.554Z,31.44
2022-08-22T14:08:52.945Z,31.89
2022-08-22T14:11:06.713Z,31.49
2022-08-22T14:13:39.140Z,31.79
2022-08-22T14:15:44.692Z,31.68
2022-08-22T14:17:52.625Z,31.76
2022-08-22T14:20:01.488Z,31.85
2022-08-22T14:22:10.270Z,31.77
2022-08-22T14:24:25.449Z,31.05
2022-08-22T14:26:37.356Z,31.17
2022-08-22T14:28:50.542Z,31.27
2022-08-22T14:31:00.601Z,30.38
2022-08-22T14:33:13.997Z,31.70
2022-08-22T14:35:25.718Z,32.46
2022-08-22T14:37:42.732Z,33.15
2022-08-22T14:39:50.789Z,33.64
2022-08-22T14:42:04.122Z,32.94
2022-08-22T14:44:12.198Z,34.14
2022-08-22T14:46:22.440Z,34.52
2022-08-22T14:48:37.532Z,34.57
2022-08-22T14:50:53.074Z,34.32
2022-08-22T14:53:06.100Z,33.41
2022-08-22T14:55:22.045Z,32.85
2022-08-22T14:57:25.186Z,33.04
2022-08-22T14:59:38.004Z,33.42
2022-08-22T15:01:57.465Z,33.70
2022-08-22T15:04:04.633Z,34.01
2022-08-22T15:06:12.855Z,34.52
2022-08-22T15:08:27.496Z,34.89
2022-08-22T15:10:34.317Z,35.27
2022-08-22T15:12:41.676Z,35.17
2022-08-22T15:14:48.977Z,35.76
2022-08-22T15:16:58.816Z,36.14
2022-08-22T15:19:03.001Z,36.43
2022-08-22T15:21:10.241Z,36.71
2022-08-22T15:23:20.891Z,36.89
2022-08-22T15:25:28.471Z,36.76
2022-08-22T15:27:35.785Z,36.79
2022-08-22T15:29:55.651Z,36.43
2022-08-22T15:32:02.305Z,37.08
2022-08-22T15:34:12.345Z,37.24
2022-08-22T15:36:20.963Z,37.29
2022-08-22T15:38:32.181Z,37.23
2022-08-22T15:40:40.274Z,36.72
2022-08-22T15:42:47.334Z,36.77
2022-08-22T15:44:55.844Z,37.33
2022-08-22T15:47:03.903Z,36.98
2022-08-22T15:49:10.595Z,36.99
2022-08-22T15:51:32.904Z,36.58
2022-08-22T15:54:16.236Z,36.04
2022-08-22T15:56:30.009Z,35.27
2022-08-22T15:58:37.239Z,33.97
2022-08-22T16:00:45.207Z,33.63
2022-08-22T16:02:59.019Z,33.17
2022-08-22T16:05:24.529Z,32.74
2022-08-22T16:07:40.278Z,32.29
2022-08-22T16:09:48.659Z,32.13
2022-08-22T16:11:56.101Z,32.01
2022-08-22T16:14:21.913Z,31.48
2022-08-22T16:16:54.020Z,31.50
2022-08-22T16:19:21.639Z,30.52
2022-08-22T16:21:59.404Z,30.56
2022-08-22T16:24:33.895Z,30.59
2022-08-22T16:26:42.861Z,30.60
2022-08-22T16:28:58.816Z,30.45
2022-08-22T16:31:18.578Z,30.34
2022-08-22T16:33:34.448Z,30.07
2022-08-22T16:36:24.185Z,30.44
2022-08-22T16:38:36.680Z,30.59
2022-08-22T16:40:49.174Z,28.86
2022-08-22T16:43:09.395Z,29.82
2022-08-22T16:45:17.147Z,28.66
2022-08-22T16:47:22.558Z,29.87
2022-08-22T16:49:29.441Z,29.81
2022-08-22T16:51:32.329Z,29.71
2022-08-22T16:54:09.826Z,29.64
2022-08-22T16:56:25.178Z,29.57
2022-08-22T16:59:22.349Z,29.61
2022-08-22T17:01:39.380Z,29.50
2022-08-22T17:03:48.728Z,29.33
2022-08-22T17:06:15.155Z,29.53
2022-08-22T17:08:35.136Z,29.71
2022-08-22T17:10:48.702Z,31.51
2022-08-22T17:13:06.165Z,32.18
2022-08-22T17:15:20.382Z,32.79
2022-08-22T17:17:35.246Z,33.18
2022-08-22T17:19:58.155Z,33.40
2022-08-22T17:22:08.501Z,33.13
2022-08-22T17:24:32.102Z,33.35
2022-08-22T17:26:48.805Z,32.88
2022-08-22T17:29:10.436Z,32.68
2022-08-22T17:31:18.442Z,32.28
2022-08-22T17:33:31.351Z,31.78
2022-08-22T17:35:51.378Z,30.59
2022-08-22T17:38:05.361Z,30.50
2022-08-22T17:40:22.226Z,30.07
2022-08-22T17:42:42.602Z,29.79
2022-08-22T17:44:53.801Z,29.55
2022-08-22T17:47:01.090Z,29.36
2022-08-22T17:49:17.691Z,28.64
2022-08-22T17:51:28.942Z,28.85
2022-08-22T17:53:38.709Z,28.33
2022-08-22T17:55:57.753Z,28.22
2022-08-22T17:58:07.373Z,28.04
2022-08-22T18:00:25.262Z,27.50
2022-08-22T18:02:33.698Z,27.73
2022-08-22T18:04:47.497Z,27.59
2022-08-22T18:06:56.696Z,27.55
2022-08-22T18:09:18.801Z,27.12
2022-08-22T18:11:30.112Z,27.23
2022-08-22T18:13:50.490Z,27.23
2022-08-22T18:16:00.713Z,27.18
2022-08-22T18:18:08.199Z,26.88
2022-08-22T18:20:16.525Z,26.57
2022-08-22T18:22:24.675Z,26.22
2022-08-22T18:24:34.711Z,26.50
2022-08-22T18:26:47.153Z,26.41
2022-08-22T18:28:54.290Z,26.12
2022-08-22T18:31:02.635Z,26.10
2022-08-22T18:33:13.081Z,25.72
2022-08-22T18:35:22.567Z,25.06
2022-08-22T18:37:47.343Z,25.32
2022-08-22T18:39:59.904Z,25.59
2022-08-22T18:42:10.009Z,24.46
2022-08-22T18:44:18.465Z,22.28
2022-08-22T18:46:42.308Z,24.89
2022-08-22T18:49:13.636Z,24.92
2022-08-22T18:51:20.249Z,24.82
2022-08-22T18:53:38.224Z,24.91
2022-08-22T18:55:56.171Z,24.33
2022-08-22T18:58:37.667Z,24.98
2022-08-22T19:00:58.750Z,24.99
2022-08-22T19:03:28.855Z,24.92
2022-08-22T19:05:47.993Z,24.52
2022-08-22T19:08:23.670Z,24.72
2022-08-22T19:10:37.328Z,24.53
2022-08-22T19:13:02.216Z,24.48
2022-08-22T19:15:22.223Z,24.47
2022-08-22T19:17:59.510Z,24.44
2022-08-22T19:20:28.664Z,24.24
2022-08-22T19:22:34.140Z,24.25
2022-08-22T19:25:08.948Z,23.60
2022-08-22T19:27:31.134Z,24.15
2022-08-22T19:29:56.953Z,22.20
2022-08-22T19:32:03.196Z,23.95
2022-08-22T19:34:36.877Z,23.95
2022-08-22T19:36:40.577Z,23.81
2022-08-22T19:38:59.905Z,23.71
2022-08-22T19:41:04.228Z,23.62
2022-08-22T19:43:21.205Z,23.30
2022-08-22T19:45:29.025Z,23.61
2022-08-22T19:47:35.079Z,23.48
2022-08-22T19:49:40.579Z,23.54
2022-08-22T19:51:45.984Z,23.50
2022-08-22T19:54:03.291Z,23.46
2022-08-22T19:56:18.964Z,23.34
2022-08-22T19:58:31.822Z,22.22
2022-08-22T20:00:53.648Z,23.27
2022-08-22T20:03:02.997Z,23.24
2022-08-22T20:05:28.896Z,23.17
2022-08-22T20:07:45.613Z,23.14
2022-08-22T20:09:59.412Z,20.34
2022-08-22T20:12:15.275Z,23.05
2022-08-22T20:14:30.327Z,22.37
2022-08-22T20:17:06.600Z,23.01
2022-08-22T20:19:22.143Z,22.96
2022-08-22T20:21:58.072Z,22.91
2022-08-22T20:24:04.469Z,22.86
2022-08-22T20:26:08.221Z,22.77
2022-08-22T20:28:34.734Z,22.71
2022-08-22T20:30:43.269Z,22.28
2022-08-22T20:32:49.602Z,22.67
2022-08-22T20:34:57.098Z,22.63
2022-08-22T20:37:27.017Z,22.49
2022-08-22T20:39:37.117Z,20.47
2022-08-22T20:41:43.855Z,22.50
2022-08-22T20:43:52.043Z,22.41
2022-08-22T20:46:03.653Z,21.75
2022-08-22T20:48:11.027Z,22.31
2022-08-22T20:50:14.315Z,22.30
2022-08-22T20:52:27.145Z,22.23
2022-08-22T20:54:32.662Z,21.72
2022-08-22T20:56:38.908Z,20.64
2022-08-22T20:59:00.928Z,21.48
2022-08-22T21:01:04.532Z,21.57
2022-08-22T21:03:12.998Z,17.48
2022-08-22T21:05:22.620Z,21.65
2022-08-22T21:07:29.943Z,21.67
2022-08-22T21:09:50.457Z,21.33
2022-08-22T21:11:52.363Z,21.60
2022-08-22T21:13:56.974Z,21.60
2022-08-22T21:16:02.532Z,21.55
2022-08-22T21:18:06.080Z,19.35
2022-08-22T21:20:19.111Z,21.32
2022-08-22T21:22:28.344Z,20.86
2022-08-22T21:24:32.128Z,20.76
2022-08-22T21:26:38.151Z,20.81
2022-08-22T21:28:54.090Z,20.85
2022-08-22T21:31:02.731Z,19.38
2022-08-22T21:33:06.098Z,19.51
2022-08-22T21:35:24.883Z,20.99
2022-08-22T21:37:36.188Z,20.90
2022-08-22T21:39:44.857Z,20.92
2022-08-22T21:41:51.592Z,17.67
2022-08-22T21:43:55.107Z,20.44
2022-08-22T21:45:59.748Z,19.43
2022-08-22T21:48:03.128Z,20.78
2022-08-22T21:50:18.611Z,19.73
2022-08-22T21:52:28.025Z,20.67
2022-08-22T21:54:41.803Z,20.61
2022-08-22T21:56:44.710Z,20.57
2022-08-22T21:58:48.602Z,20.53
2022-08-22T22:00:54.336Z,19.85
2022-08-22T22:03:02.817Z,20.46
2022-08-22T22:05:09.635Z,20.43
2022-08-22T22:07:14.134Z,18.55
2022-08-22T22:09:18.396Z,20.41
2022-08-22T22:11:22.434Z,20.41
2022-08-22T22:13:28.409Z,20.35
2022-08-22T22:15:36.732Z,20.39
2022-08-22T22:17:39.681Z,20.31
2022-08-22T22:19:43.994Z,20.29
2022-08-22T22:21:46.825Z,18.56
2022-08-22T22:23:50.611Z,18.47
2022-08-22T22:25:55.445Z,20.13
2022-08-22T22:27:59.397Z,20.04
2022-08-22T22:30:02.352Z,19.99
2022-08-22T22:32:05.219Z,18.70
2022-08-22T22:34:08.065Z,20.00
2022-08-22T22:36:15.763Z,19.55
2022-08-22T22:38:23.748Z,19.93
2022-08-22T22:40:26.927Z,17.31
2022-08-22T22:42:29.797Z,19.92
2022-08-22T22:44:32.701Z,19.68
2022-08-22T22:46:35.475Z,19.45
2022-08-22T22:48:38.295Z,19.45
2022-08-22T22:50:44.044Z,19.33
2022-08-22T22:52:48.356Z,19.38
2022-08-22T22:54:51.809Z,19.41
2022-08-22T22:56:54.768Z,19.35
2022-08-22T22:59:00.718Z,18.69
2022-08-22T23:01:19.354Z,19.32
2022-08-22T23:03:22.704Z,19.37
2022-08-22T23:05:25.561Z,19.38
2022-08-22T23:07:28.998Z,19.38
2022-08-22T23:09:45.107Z,19.34
2022-08-22T23:11:48.667Z,19.37
2022-08-22T23:13:52.574Z,18.59
2022-08-22T23:15:55.556Z,19.31
2022-08-22T23:18:02.276Z,19.19
2022-08-22T23:20:06.005Z,16.89
2022-08-22T23:22:10.104Z,19.09
2022-08-22T23:24:14.359Z,18.60
2022-08-22T23:26:19.283Z,19.04
2022-08-22T23:28:22.425Z,18.97
2022-08-22T23:30:25.618Z,18.97
2022-08-22T23:32:28.549Z,18.90
2022-08-22T23:34:33.626Z,18.88
2022-08-22T23:36:39.420Z,15.62
2022-08-22T23:38:42.728Z,18.72
2022-08-22T23:40:45.884Z,18.13
2022-08-22T23:42:50.091Z,18.86
2022-08-22T23:44:53.110Z,17.00
2022-08-22T23:46:56.681Z,18.81
2022-08-22T23:49:00.142Z,18.80
2022-08-22T23:51:02.948Z,18.77
2022-08-22T23:53:05.798Z,18.11
2022-08-22T23:55:09.292Z,18.80
2022-08-22T23:57:12.668Z,18.79
2022-08-22T23:59:19.973Z,18.77
